sensor_id;sensor_type;location;lat;lon;timestamp;P1;durP1;ratioP1;P2;durP2;ratioP2
19257;SDS011;9763;48.780;9.212;2024-02-21T00:01:50;2.80;;;1.80;;
19257;SDS011;9763;48.780;9.212;2024-02-21T00:05:15;2.33;;;1.80;;
19257;SDS011;9763;48.780;9.212;2024-02-21T00:08:38;3.00;;;2.20;;
19257;SDS011;9763;48.780;9.212;2024-02-21T00:12:02;4.77;;;2.00;;
19257;SDS011;9763;48.780;9.212;2024-02-21T00:15:27;2.53;;;2.00;;
19257;SDS011;9763;48.780;9.212;2024-02-21T00:18:50;3.20;;;1.70;;
19257;SDS011;9763;48.780;9.212;2024-02-21T00:22:15;3.63;;;1.77;;
19257;SDS011;9763;48.780;9.212;2024-02-21T00:25:38;2.07;;;1.70;;
19257;SDS011;9763;48.780;9.212;2024-02-21T00:29:02;3.00;;;1.50;;
19257;SDS011;9763;48.780;9.212;2024-02-21T00:32:29;4.30;;;1.77;;
19257;SDS011;9763;48.780;9.212;2024-02-21T00:35:53;5.03;;;1.67;;
19257;SDS011;9763;48.780;9.212;2024-02-21T00:39:19;4.40;;;2.00;;
19257;SDS011;9763;48.780;9.212;2024-02-21T00:42:42;2.23;;;1.40;;
19257;SDS011;9763;48.780;9.212;2024-02-21T00:46:08;1.80;;;1.53;;
19257;SDS011;9763;48.780;9.212;2024-02-21T00:49:32;3.50;;;1.90;;
19257;SDS011;9763;48.780;9.212;2024-02-21T00:52:55;3.17;;;1.87;;
19257;SDS011;9763;48.780;9.212;2024-02-21T00:56:20;3.97;;;1.60;;
19257;SDS011;9763;48.780;9.212;2024-02-21T00:59:43;2.37;;;1.70;;
19257;SDS011;9763;48.780;9.212;2024-02-21T01:03:07;2.40;;;1.63;;
19257;SDS011;9763;48.780;9.212;2024-02-21T01:06:31;2.13;;;1.23;;
19257;SDS011;9763;48.780;9.212;2024-02-21T01:09:55;2.10;;;1.40;;
19257;SDS011;9763;48.780;9.212;2024-02-21T01:13:20;2.70;;;1.27;;
19257;SDS011;9763;48.780;9.212;2024-02-21T01:16:43;1.77;;;1.40;;
19257;SDS011;9763;48.780;9.212;2024-02-21T01:20:07;2.60;;;1.40;;
19257;SDS011;9763;48.780;9.212;2024-02-21T01:23:32;3.90;;;1.47;;
19257;SDS011;9763;48.780;9.212;2024-02-21T01:26:56;7.50;;;1.70;;
19257;SDS011;9763;48.780;9.212;2024-02-21T01:30:20;2.03;;;1.27;;
19257;SDS011;9763;48.780;9.212;2024-02-21T01:33:44;2.93;;;1.50;;
19257;SDS011;9763;48.780;9.212;2024-02-21T01:37:08;1.77;;;1.00;;
19257;SDS011;9763;48.780;9.212;2024-02-21T01:40:33;2.37;;;1.33;;
19257;SDS011;9763;48.780;9.212;2024-02-21T01:43:56;2.77;;;1.20;;
19257;SDS011;9763;48.780;9.212;2024-02-21T01:47:22;2.87;;;1.33;;
19257;SDS011;9763;48.780;9.212;2024-02-21T01:50:46;2.07;;;1.00;;
19257;SDS011;9763;48.780;9.212;2024-02-21T01:54:11;1.20;;;1.00;;
19257;SDS011;9763;48.780;9.212;2024-02-21T01:57:38;2.20;;;1.20;;
19257;SDS011;9763;48.780;9.212;2024-02-21T02:01:03;3.27;;;1.13;;
19257;SDS011;9763;48.780;9.212;2024-02-21T02:04:28;2.00;;;1.70;;
19257;SDS011;9763;48.780;9.212;2024-02-21T02:07:52;2.70;;;1.40;;
19257;SDS011;9763;48.780;9.212;2024-02-21T02:11:15;2.53;;;1.40;;
19257;SDS011;9763;48.780;9.212;2024-02-21T02:14:40;7.10;;;1.53;;
19257;SDS011;9763;48.780;9.212;2024-02-21T02:18:04;2.37;;;1.30;;
19257;SDS011;9763;48.780;9.212;2024-02-21T02:21:30;2.37;;;1.37;;
19257;SDS011;9763;48.780;9.212;2024-02-21T02:25:04;1.73;;;1.20;;
19257;SDS011;9763;48.780;9.212;2024-02-21T02:28:28;2.10;;;1.40;;
19257;SDS011;9763;48.780;9.212;2024-02-21T02:31:52;2.10;;;1.13;;
19257;SDS011;9763;48.780;9.212;2024-02-21T02:35:17;2.07;;;1.10;;
19257;SDS011;9763;48.780;9.212;2024-02-21T02:38:40;3.47;;;1.50;;
19257;SDS011;9763;48.780;9.212;2024-02-21T02:42:05;3.83;;;1.83;;
19257;SDS011;9763;48.780;9.212;2024-02-21T02:45:30;1.67;;;1.20;;
19257;SDS011;9763;48.780;9.212;2024-02-21T02:48:53;3.20;;;1.30;;
19257;SDS011;9763;48.780;9.212;2024-02-21T02:52:17;1.63;;;1.20;;
19257;SDS011;9763;48.780;9.212;2024-02-21T02:55:41;1.83;;;1.20;;
19257;SDS011;9763;48.780;9.212;2024-02-21T02:59:06;2.90;;;1.80;;
19257;SDS011;9763;48.780;9.212;2024-02-21T03:02:30;1.50;;;1.20;;
19257;SDS011;9763;48.780;9.212;2024-02-21T03:05:53;3.33;;;1.30;;
19257;SDS011;9763;48.780;9.212;2024-02-21T03:09:17;2.20;;;1.50;;
19257;SDS011;9763;48.780;9.212;2024-02-21T03:12:41;3.13;;;1.70;;
19257;SDS011;9763;48.780;9.212;2024-02-21T03:16:07;2.63;;;1.30;;
19257;SDS011;9763;48.780;9.212;2024-02-21T03:19:30;2.53;;;1.50;;
19257;SDS011;9763;48.780;9.212;2024-02-21T03:22:53;3.20;;;1.43;;
19257;SDS011;9763;48.780;9.212;2024-02-21T03:26:17;1.43;;;1.03;;
19257;SDS011;9763;48.780;9.212;2024-02-21T03:29:41;2.53;;;1.30;;
19257;SDS011;9763;48.780;9.212;2024-02-21T03:33:06;2.33;;;1.43;;
19257;SDS011;9763;48.780;9.212;2024-02-21T03:36:30;1.90;;;1.40;;
19257;SDS011;9763;48.780;9.212;2024-02-21T03:39:54;1.80;;;1.27;;
19257;SDS011;9763;48.780;9.212;2024-02-21T03:43:17;2.13;;;1.40;;
19257;SDS011;9763;48.780;9.212;2024-02-21T03:46:41;1.57;;;1.10;;
19257;SDS011;9763;48.780;9.212;2024-02-21T03:50:07;1.60;;;1.00;;
19257;SDS011;9763;48.780;9.212;2024-02-21T03:53:31;3.43;;;1.33;;
19257;SDS011;9763;48.780;9.212;2024-02-21T03:56:55;2.37;;;1.20;;
19257;SDS011;9763;48.780;9.212;2024-02-21T04:00:19;1.60;;;1.30;;
19257;SDS011;9763;48.780;9.212;2024-02-21T04:03:43;1.93;;;1.30;;
19257;SDS011;9763;48.780;9.212;2024-02-21T04:07:09;1.70;;;1.10;;
19257;SDS011;9763;48.780;9.212;2024-02-21T04:10:32;1.63;;;0.97;;
19257;SDS011;9763;48.780;9.212;2024-02-21T04:13:56;1.70;;;1.27;;
19257;SDS011;9763;48.780;9.212;2024-02-21T04:17:19;2.33;;;1.23;;
19257;SDS011;9763;48.780;9.212;2024-02-21T04:20:43;2.43;;;1.50;;
19257;SDS011;9763;48.780;9.212;2024-02-21T04:24:07;2.30;;;1.70;;
19257;SDS011;9763;48.780;9.212;2024-02-21T04:27:31;1.67;;;1.10;;
19257;SDS011;9763;48.780;9.212;2024-02-21T04:30:56;2.80;;;1.70;;
19257;SDS011;9763;48.780;9.212;2024-02-21T04:34:19;1.40;;;1.10;;
19257;SDS011;9763;48.780;9.212;2024-02-21T04:37:43;3.13;;;1.30;;
19257;SDS011;9763;48.780;9.212;2024-02-21T04:41:08;2.10;;;1.20;;
19257;SDS011;9763;48.780;9.212;2024-02-21T04:44:34;1.20;;;0.90;;
19257;SDS011;9763;48.780;9.212;2024-02-21T04:47:59;1.57;;;1.07;;
19257;SDS011;9763;48.780;9.212;2024-02-21T04:51:23;2.13;;;1.40;;
19257;SDS011;9763;48.780;9.212;2024-02-21T04:54:47;1.50;;;1.20;;
19257;SDS011;9763;48.780;9.212;2024-02-21T04:58:13;2.90;;;1.03;;
19257;SDS011;9763;48.780;9.212;2024-02-21T05:01:36;1.57;;;1.23;;
19257;SDS011;9763;48.780;9.212;2024-02-21T05:05:00;1.50;;;0.93;;
19257;SDS011;9763;48.780;9.212;2024-02-21T05:08:23;2.43;;;0.93;;
19257;SDS011;9763;48.780;9.212;2024-02-21T05:11:47;1.53;;;1.07;;
19257;SDS011;9763;48.780;9.212;2024-02-21T05:15:12;2.83;;;1.20;;
19257;SDS011;9763;48.780;9.212;2024-02-21T05:18:36;3.00;;;1.40;;
19257;SDS011;9763;48.780;9.212;2024-02-21T05:22:00;1.60;;;1.17;;
19257;SDS011;9763;48.780;9.212;2024-02-21T05:25:23;2.63;;;1.20;;
19257;SDS011;9763;48.780;9.212;2024-02-21T05:28:47;1.80;;;1.20;;
19257;SDS011;9763;48.780;9.212;2024-02-21T05:32:12;2.73;;;1.27;;
19257;SDS011;9763;48.780;9.212;2024-02-21T05:35:36;3.07;;;1.30;;
19257;SDS011;9763;48.780;9.212;2024-02-21T05:38:59;1.73;;;1.30;;
19257;SDS011;9763;48.780;9.212;2024-02-21T05:42:23;3.13;;;1.40;;
19257;SDS011;9763;48.780;9.212;2024-02-21T05:45:46;2.30;;;1.33;;
19257;SDS011;9763;48.780;9.212;2024-02-21T05:49:12;4.60;;;1.70;;
19257;SDS011;9763;48.780;9.212;2024-02-21T05:52:36;1.80;;;1.20;;
19257;SDS011;9763;48.780;9.212;2024-02-21T05:55:59;3.10;;;1.50;;
19257;SDS011;9763;48.780;9.212;2024-02-21T05:59:23;4.60;;;1.40;;
19257;SDS011;9763;48.780;9.212;2024-02-21T06:02:47;5.23;;;1.70;;
19257;SDS011;9763;48.780;9.212;2024-02-21T06:06:12;2.60;;;1.30;;
19257;SDS011;9763;48.780;9.212;2024-02-21T06:09:36;1.40;;;1.00;;
19257;SDS011;9763;48.780;9.212;2024-02-21T06:13:00;4.10;;;1.07;;
19257;SDS011;9763;48.780;9.212;2024-02-21T06:16:23;1.83;;;1.10;;
19257;SDS011;9763;48.780;9.212;2024-02-21T06:19:47;1.80;;;1.30;;
19257;SDS011;9763;48.780;9.212;2024-02-21T06:23:13;1.70;;;1.03;;
19257;SDS011;9763;48.780;9.212;2024-02-21T06:26:39;1.90;;;1.13;;
19257;SDS011;9763;48.780;9.212;2024-02-21T06:30:03;2.97;;;1.30;;
19257;SDS011;9763;48.780;9.212;2024-02-21T06:33:28;3.83;;;1.10;;
19257;SDS011;9763;48.780;9.212;2024-02-21T06:36:52;1.53;;;1.07;;
19257;SDS011;9763;48.780;9.212;2024-02-21T06:40:17;2.27;;;1.10;;
19257;SDS011;9763;48.780;9.212;2024-02-21T06:43:42;2.23;;;1.10;;
19257;SDS011;9763;48.780;9.212;2024-02-21T06:47:05;1.30;;;1.07;;
19257;SDS011;9763;48.780;9.212;2024-02-21T06:50:30;1.87;;;1.07;;
19257;SDS011;9763;48.780;9.212;2024-02-21T06:53:54;1.70;;;1.10;;
19257;SDS011;9763;48.780;9.212;2024-02-21T06:57:20;1.30;;;1.00;;
19257;SDS011;9763;48.780;9.212;2024-02-21T07:00:44;2.33;;;1.17;;
19257;SDS011;9763;48.780;9.212;2024-02-21T07:04:07;4.90;;;1.37;;
19257;SDS011;9763;48.780;9.212;2024-02-21T07:07:31;4.17;;;1.60;;
19257;SDS011;9763;48.780;9.212;2024-02-21T07:10:56;2.03;;;1.00;;
19257;SDS011;9763;48.780;9.212;2024-02-21T07:14:23;2.67;;;1.37;;
19257;SDS011;9763;48.780;9.212;2024-02-21T07:17:46;1.30;;;1.00;;
19257;SDS011;9763;48.780;9.212;2024-02-21T07:21:10;1.70;;;1.10;;
19257;SDS011;9763;48.780;9.212;2024-02-21T07:24:34;1.80;;;1.03;;
19257;SDS011;9763;48.780;9.212;2024-02-21T07:27:59;2.10;;;1.27;;
19257;SDS011;9763;48.780;9.212;2024-02-21T07:31:24;1.33;;;1.10;;
19257;SDS011;9763;48.780;9.212;2024-02-21T07:34:48;1.97;;;1.03;;
19257;SDS011;9763;48.780;9.212;2024-02-21T07:38:12;1.40;;;1.30;;
19257;SDS011;9763;48.780;9.212;2024-02-21T07:41:36;2.13;;;1.30;;
19257;SDS011;9763;48.780;9.212;2024-02-21T07:45:00;1.90;;;1.20;;
19257;SDS011;9763;48.780;9.212;2024-02-21T07:48:26;2.43;;;1.23;;
19257;SDS011;9763;48.780;9.212;2024-02-21T07:51:52;1.90;;;1.20;;
19257;SDS011;9763;48.780;9.212;2024-02-21T07:55:16;1.60;;;1.20;;
19257;SDS011;9763;48.780;9.212;2024-02-21T07:58:39;3.28;;;1.02;;
19257;SDS011;9763;48.780;9.212;2024-02-21T08:02:03;1.50;;;1.20;;
19257;SDS011;9763;48.780;9.212;2024-02-21T08:05:30;2.03;;;1.30;;
19257;SDS011;9763;48.780;9.212;2024-02-21T08:08:53;3.60;;;1.23;;
19257;SDS011;9763;48.780;9.212;2024-02-21T08:12:19;2.60;;;1.33;;
19257;SDS011;9763;48.780;9.212;2024-02-21T08:15:42;2.33;;;1.40;;
19257;SDS011;9763;48.780;9.212;2024-02-21T08:19:06;2.07;;;1.40;;
19257;SDS011;9763;48.780;9.212;2024-02-21T08:22:31;2.27;;;1.17;;
19257;SDS011;9763;48.780;9.212;2024-02-21T08:25:54;1.90;;;1.50;;
19257;SDS011;9763;48.780;9.212;2024-02-21T08:29:18;2.30;;;1.30;;
19257;SDS011;9763;48.780;9.212;2024-02-21T08:32:42;1.90;;;1.30;;
19257;SDS011;9763;48.780;9.212;2024-02-21T08:36:06;4.73;;;1.17;;
19257;SDS011;9763;48.780;9.212;2024-02-21T08:39:31;4.67;;;1.63;;
19257;SDS011;9763;48.780;9.212;2024-02-21T08:42:55;2.30;;;1.43;;
19257;SDS011;9763;48.780;9.212;2024-02-21T08:46:18;1.60;;;1.03;;
19257;SDS011;9763;48.780;9.212;2024-02-21T08:49:42;2.97;;;1.30;;
19257;SDS011;9763;48.780;9.212;2024-02-21T08:53:05;3.10;;;1.43;;
19257;SDS011;9763;48.780;9.212;2024-02-21T08:56:31;1.80;;;1.40;;
19257;SDS011;9763;48.780;9.212;2024-02-21T08:59:55;3.30;;;1.50;;
19257;SDS011;9763;48.780;9.212;2024-02-21T09:03:19;3.60;;;1.50;;
19257;SDS011;9763;48.780;9.212;2024-02-21T09:06:42;3.30;;;1.47;;
19257;SDS011;9763;48.780;9.212;2024-02-21T09:10:08;2.90;;;1.20;;
19257;SDS011;9763;48.780;9.212;2024-02-21T09:13:33;1.87;;;1.10;;
19257;SDS011;9763;48.780;9.212;2024-02-21T09:16:57;1.50;;;1.00;;
19257;SDS011;9763;48.780;9.212;2024-02-21T09:20:21;1.63;;;0.87;;
19257;SDS011;9763;48.780;9.212;2024-02-21T09:23:45;2.00;;;1.10;;
19257;SDS011;9763;48.780;9.212;2024-02-21T09:27:08;2.10;;;1.30;;
19257;SDS011;9763;48.780;9.212;2024-02-21T09:30:33;2.27;;;1.40;;
19257;SDS011;9763;48.780;9.212;2024-02-21T09:33:57;2.10;;;1.20;;
19257;SDS011;9763;48.780;9.212;2024-02-21T09:37:21;5.83;;;1.10;;
19257;SDS011;9763;48.780;9.212;2024-02-21T09:40:44;4.50;;;1.20;;
19257;SDS011;9763;48.780;9.212;2024-02-21T09:44:09;1.50;;;1.20;;
19257;SDS011;9763;48.780;9.212;2024-02-21T09:47:43;2.92;;;1.20;;
19257;SDS011;9763;48.780;9.212;2024-02-21T09:51:26;2.27;;;1.27;;
19257;SDS011;9763;48.780;9.212;2024-02-21T09:54:55;2.13;;;1.13;;
19257;SDS011;9763;48.780;9.212;2024-02-21T09:58:22;2.60;;;1.10;;
19257;SDS011;9763;48.780;9.212;2024-02-21T10:01:49;1.80;;;1.30;;
19257;SDS011;9763;48.780;9.212;2024-02-21T10:05:15;2.00;;;1.20;;
19257;SDS011;9763;48.780;9.212;2024-02-21T10:08:39;2.10;;;1.17;;
19257;SDS011;9763;48.780;9.212;2024-02-21T10:12:09;1.80;;;1.20;;
19257;SDS011;9763;48.780;9.212;2024-02-21T10:15:35;4.23;;;1.73;;
19257;SDS011;9763;48.780;9.212;2024-02-21T10:18:59;3.80;;;1.53;;
19257;SDS011;9763;48.780;9.212;2024-02-21T10:22:24;1.70;;;1.17;;
19257;SDS011;9763;48.780;9.212;2024-02-21T10:25:49;3.00;;;1.20;;
19257;SDS011;9763;48.780;9.212;2024-02-21T10:29:13;3.20;;;1.30;;
19257;SDS011;9763;48.780;9.212;2024-02-21T10:32:37;2.77;;;1.30;;
19257;SDS011;9763;48.780;9.212;2024-02-21T10:36:12;1.87;;;1.07;;
19257;SDS011;9763;48.780;9.212;2024-02-21T10:39:38;1.77;;;1.23;;
19257;SDS011;9763;48.780;9.212;2024-02-21T10:43:03;3.10;;;1.30;;
19257;SDS011;9763;48.780;9.212;2024-02-21T10:46:34;2.83;;;1.37;;
19257;SDS011;9763;48.780;9.212;2024-02-21T10:50:02;2.13;;;1.17;;
19257;SDS011;9763;48.780;9.212;2024-02-21T10:53:29;2.30;;;1.37;;
19257;SDS011;9763;48.780;9.212;2024-02-21T10:57:09;2.47;;;1.10;;
19257;SDS011;9763;48.780;9.212;2024-02-21T11:00:35;1.50;;;1.00;;
19257;SDS011;9763;48.780;9.212;2024-02-21T11:04:01;3.10;;;1.23;;
19257;SDS011;9763;48.780;9.212;2024-02-21T11:07:31;2.07;;;1.20;;
19257;SDS011;9763;48.780;9.212;2024-02-21T11:10:58;1.50;;;1.20;;
19257;SDS011;9763;48.780;9.212;2024-02-21T11:14:25;3.00;;;1.20;;
19257;SDS011;9763;48.780;9.212;2024-02-21T11:17:53;1.97;;;1.20;;
19257;SDS011;9763;48.780;9.212;2024-02-21T11:21:32;3.43;;;1.50;;
19257;SDS011;9763;48.780;9.212;2024-02-21T11:25:05;1.80;;;1.13;;
19257;SDS011;9763;48.780;9.212;2024-02-21T11:28:33;1.33;;;1.03;;
19257;SDS011;9763;48.780;9.212;2024-02-21T11:31:59;1.70;;;1.20;;
19257;SDS011;9763;48.780;9.212;2024-02-21T11:35:30;1.50;;;1.20;;
19257;SDS011;9763;48.780;9.212;2024-02-21T11:38:58;2.47;;;1.50;;
19257;SDS011;9763;48.780;9.212;2024-02-21T11:42:27;2.20;;;1.23;;
19257;SDS011;9763;48.780;9.212;2024-02-21T11:45:57;1.93;;;1.00;;
19257;SDS011;9763;48.780;9.212;2024-02-21T11:49:25;2.53;;;1.23;;
19257;SDS011;9763;48.780;9.212;2024-02-21T11:52:51;1.67;;;1.10;;
19257;SDS011;9763;48.780;9.212;2024-02-21T11:56:17;2.43;;;1.10;;
19257;SDS011;9763;48.780;9.212;2024-02-21T11:59:42;1.33;;;0.93;;
19257;SDS011;9763;48.780;9.212;2024-02-21T12:03:08;2.40;;;1.00;;
19257;SDS011;9763;48.780;9.212;2024-02-21T12:06:33;1.40;;;0.90;;
19257;SDS011;9763;48.780;9.212;2024-02-21T12:09:58;1.47;;;1.10;;
19257;SDS011;9763;48.780;9.212;2024-02-21T12:13:23;1.67;;;0.90;;
19257;SDS011;9763;48.780;9.212;2024-02-21T12:16:46;1.50;;;1.00;;
19257;SDS011;9763;48.780;9.212;2024-02-21T12:20:10;2.93;;;1.10;;
19257;SDS011;9763;48.780;9.212;2024-02-21T12:23:36;2.53;;;1.00;;
19257;SDS011;9763;48.780;9.212;2024-02-21T12:27:01;1.50;;;0.90;;
19257;SDS011;9763;48.780;9.212;2024-02-21T12:30:25;2.90;;;1.00;;
19257;SDS011;9763;48.780;9.212;2024-02-21T12:33:49;1.30;;;0.90;;
19257;SDS011;9763;48.780;9.212;2024-02-21T12:37:14;1.87;;;0.90;;
19257;SDS011;9763;48.780;9.212;2024-02-21T12:40:39;2.13;;;1.20;;
19257;SDS011;9763;48.780;9.212;2024-02-21T12:44:03;1.60;;;1.07;;
19257;SDS011;9763;48.780;9.212;2024-02-21T12:47:28;1.47;;;0.90;;
19257;SDS011;9763;48.780;9.212;2024-02-21T12:50:52;2.20;;;0.97;;
19257;SDS011;9763;48.780;9.212;2024-02-21T12:54:16;2.20;;;0.80;;
19257;SDS011;9763;48.780;9.212;2024-02-21T12:57:41;1.67;;;0.90;;
19257;SDS011;9763;48.780;9.212;2024-02-21T13:01:04;1.57;;;0.97;;
19257;SDS011;9763;48.780;9.212;2024-02-21T13:04:28;1.63;;;0.90;;
19257;SDS011;9763;48.780;9.212;2024-02-21T13:07:52;2.50;;;1.00;;
19257;SDS011;9763;48.780;9.212;2024-02-21T13:11:16;1.23;;;0.73;;
19257;SDS011;9763;48.780;9.212;2024-02-21T13:14:41;1.30;;;0.90;;
19257;SDS011;9763;48.780;9.212;2024-02-21T13:18:06;1.97;;;1.00;;
19257;SDS011;9763;48.780;9.212;2024-02-21T13:21:29;1.70;;;0.90;;
19257;SDS011;9763;48.780;9.212;2024-02-21T13:24:52;1.50;;;0.90;;
19257;SDS011;9763;48.780;9.212;2024-02-21T13:28:19;1.50;;;0.90;;
19257;SDS011;9763;48.780;9.212;2024-02-21T13:31:44;1.30;;;0.90;;
19257;SDS011;9763;48.780;9.212;2024-02-21T13:35:08;1.30;;;0.80;;
19257;SDS011;9763;48.780;9.212;2024-02-21T13:38:33;2.20;;;0.97;;
19257;SDS011;9763;48.780;9.212;2024-02-21T13:41:56;1.53;;;0.90;;
19257;SDS011;9763;48.780;9.212;2024-02-21T13:45:20;1.50;;;1.03;;
19257;SDS011;9763;48.780;9.212;2024-02-21T13:48:45;1.33;;;0.85;;
19257;SDS011;9763;48.780;9.212;2024-02-21T13:52:10;1.50;;;0.83;;
19257;SDS011;9763;48.780;9.212;2024-02-21T13:55:34;1.30;;;0.90;;
19257;SDS011;9763;48.780;9.212;2024-02-21T13:58:57;1.20;;;0.90;;
19257;SDS011;9763;48.780;9.212;2024-02-21T14:02:22;1.50;;;1.03;;
19257;SDS011;9763;48.780;9.212;2024-02-21T14:05:47;2.77;;;0.93;;
19257;SDS011;9763;48.780;9.212;2024-02-21T14:09:11;1.93;;;0.80;;
19257;SDS011;9763;48.780;9.212;2024-02-21T14:12:35;1.20;;;0.80;;
19257;SDS011;9763;48.780;9.212;2024-02-21T14:15:59;1.90;;;1.10;;
19257;SDS011;9763;48.780;9.212;2024-02-21T14:19:23;1.40;;;0.80;;
19257;SDS011;9763;48.780;9.212;2024-02-21T14:22:48;1.40;;;1.03;;
19257;SDS011;9763;48.780;9.212;2024-02-21T14:26:12;1.93;;;0.70;;
19257;SDS011;9763;48.780;9.212;2024-02-21T14:29:36;1.60;;;0.80;;
19257;SDS011;9763;48.780;9.212;2024-02-21T14:32:59;1.27;;;0.80;;
19257;SDS011;9763;48.780;9.212;2024-02-21T14:36:23;1.40;;;1.00;;
19257;SDS011;9763;48.780;9.212;2024-02-21T14:39:48;1.20;;;0.80;;
19257;SDS011;9763;48.780;9.212;2024-02-21T14:43:11;1.30;;;0.80;;
19257;SDS011;9763;48.780;9.212;2024-02-21T14:46:35;1.50;;;1.00;;
19257;SDS011;9763;48.780;9.212;2024-02-21T14:50:02;2.03;;;1.00;;
19257;SDS011;9763;48.780;9.212;2024-02-21T14:53:27;4.40;;;1.00;;
19257;SDS011;9763;48.780;9.212;2024-02-21T14:56:52;1.30;;;0.80;;
19257;SDS011;9763;48.780;9.212;2024-02-21T15:00:16;1.20;;;0.80;;
19257;SDS011;9763;48.780;9.212;2024-02-21T15:03:43;1.57;;;0.83;;
19257;SDS011;9763;48.780;9.212;2024-02-21T15:07:06;2.60;;;0.90;;
19257;SDS011;9763;48.780;9.212;2024-02-21T15:10:30;1.40;;;0.90;;
19257;SDS011;9763;48.780;9.212;2024-02-21T15:13:55;1.97;;;0.80;;
19257;SDS011;9763;48.780;9.212;2024-02-21T15:17:18;1.20;;;0.80;;
19257;SDS011;9763;48.780;9.212;2024-02-21T15:20:42;1.70;;;0.80;;
19257;SDS011;9763;48.780;9.212;2024-02-21T15:24:06;1.87;;;0.80;;
19257;SDS011;9763;48.780;9.212;2024-02-21T15:27:30;1.40;;;0.90;;
19257;SDS011;9763;48.780;9.212;2024-02-21T15:30:56;1.30;;;0.80;;
19257;SDS011;9763;48.780;9.212;2024-02-21T15:34:20;1.20;;;0.90;;
19257;SDS011;9763;48.780;9.212;2024-02-21T15:37:44;1.50;;;0.90;;
19257;SDS011;9763;48.780;9.212;2024-02-21T15:41:10;4.20;;;0.90;;
19257;SDS011;9763;48.780;9.212;2024-02-21T15:44:34;1.40;;;0.90;;
19257;SDS011;9763;48.780;9.212;2024-02-21T15:47:59;2.20;;;1.07;;
19257;SDS011;9763;48.780;9.212;2024-02-21T15:51:22;1.50;;;1.07;;
19257;SDS011;9763;48.780;9.212;2024-02-21T15:54:46;1.70;;;1.00;;
19257;SDS011;9763;48.780;9.212;2024-02-21T15:58:09;1.60;;;1.17;;
19257;SDS011;9763;48.780;9.212;2024-02-21T16:01:33;1.40;;;1.00;;
19257;SDS011;9763;48.780;9.212;2024-02-21T16:04:58;1.63;;;1.00;;
19257;SDS011;9763;48.780;9.212;2024-02-21T16:08:22;4.20;;;1.13;;
19257;SDS011;9763;48.780;9.212;2024-02-21T16:11:46;1.70;;;1.20;;
19257;SDS011;9763;48.780;9.212;2024-02-21T16:15:11;1.67;;;1.23;;
19257;SDS011;9763;48.780;9.212;2024-02-21T16:18:35;4.50;;;1.60;;
19257;SDS011;9763;48.780;9.212;2024-02-21T16:21:59;2.23;;;1.57;;
19257;SDS011;9763;48.780;9.212;2024-02-21T16:25:26;2.10;;;1.50;;
19257;SDS011;9763;48.780;9.212;2024-02-21T16:28:49;3.20;;;1.07;;
19257;SDS011;9763;48.780;9.212;2024-02-21T16:32:13;2.20;;;1.30;;
19257;SDS011;9763;48.780;9.212;2024-02-21T16:35:38;1.60;;;1.30;;
19257;SDS011;9763;48.780;9.212;2024-02-21T16:39:03;2.77;;;1.60;;
19257;SDS011;9763;48.780;9.212;2024-02-21T16:42:28;1.70;;;1.30;;
19257;SDS011;9763;48.780;9.212;2024-02-21T16:45:52;1.60;;;1.20;;
19257;SDS011;9763;48.780;9.212;2024-02-21T16:49:17;2.43;;;1.30;;
19257;SDS011;9763;48.780;9.212;2024-02-21T16:52:40;2.03;;;1.13;;
19257;SDS011;9763;48.780;9.212;2024-02-21T16:56:06;1.50;;;1.13;;
19257;SDS011;9763;48.780;9.212;2024-02-21T16:59:30;2.37;;;1.30;;
19257;SDS011;9763;48.780;9.212;2024-02-21T17:02:53;1.83;;;1.27;;
19257;SDS011;9763;48.780;9.212;2024-02-21T17:06:20;1.70;;;1.07;;
19257;SDS011;9763;48.780;9.212;2024-02-21T17:09:44;1.60;;;1.20;;
19257;SDS011;9763;48.780;9.212;2024-02-21T17:13:09;2.10;;;1.47;;
19257;SDS011;9763;48.780;9.212;2024-02-21T17:16:33;1.90;;;1.47;;
19257;SDS011;9763;48.780;9.212;2024-02-21T17:19:59;1.93;;;1.40;;
19257;SDS011;9763;48.780;9.212;2024-02-21T17:23:23;2.90;;;1.90;;
19257;SDS011;9763;48.780;9.212;2024-02-21T17:26:48;6.63;;;5.33;;
19257;SDS011;9763;48.780;9.212;2024-02-21T17:30:13;4.93;;;4.27;;
19257;SDS011;9763;48.780;9.212;2024-02-21T17:33:37;4.67;;;3.23;;
19257;SDS011;9763;48.780;9.212;2024-02-21T17:37:01;4.43;;;2.43;;
19257;SDS011;9763;48.780;9.212;2024-02-21T17:40:25;2.43;;;1.97;;
19257;SDS011;9763;48.780;9.212;2024-02-21T17:43:49;2.00;;;1.53;;
19257;SDS011;9763;48.780;9.212;2024-02-21T17:47:14;2.17;;;1.97;;
19257;SDS011;9763;48.780;9.212;2024-02-21T17:50:39;2.37;;;1.93;;
19257;SDS011;9763;48.780;9.212;2024-02-21T17:54:02;1.60;;;1.40;;
19257;SDS011;9763;48.780;9.212;2024-02-21T17:57:26;1.50;;;1.17;;
19257;SDS011;9763;48.780;9.212;2024-02-21T18:00:49;1.67;;;1.17;;
19257;SDS011;9763;48.780;9.212;2024-02-21T18:04:17;1.60;;;0.90;;
19257;SDS011;9763;48.780;9.212;2024-02-21T18:07:41;1.40;;;1.10;;
19257;SDS011;9763;48.780;9.212;2024-02-21T18:11:05;2.60;;;1.43;;
19257;SDS011;9763;48.780;9.212;2024-02-21T18:14:29;2.83;;;1.23;;
19257;SDS011;9763;48.780;9.212;2024-02-21T18:17:52;2.07;;;1.40;;
19257;SDS011;9763;48.780;9.212;2024-02-21T18:21:17;2.90;;;1.00;;
19257;SDS011;9763;48.780;9.212;2024-02-21T18:24:42;1.93;;;1.00;;
19257;SDS011;9763;48.780;9.212;2024-02-21T18:28:06;1.57;;;1.10;;
19257;SDS011;9763;48.780;9.212;2024-02-21T18:31:32;1.70;;;1.00;;
19257;SDS011;9763;48.780;9.212;2024-02-21T18:34:55;1.40;;;1.10;;
19257;SDS011;9763;48.780;9.212;2024-02-21T18:38:20;1.30;;;0.90;;
19257;SDS011;9763;48.780;9.212;2024-02-21T18:41:44;1.40;;;1.00;;
19257;SDS011;9763;48.780;9.212;2024-02-21T18:45:07;1.50;;;1.03;;
19257;SDS011;9763;48.780;9.212;2024-02-21T18:48:32;1.50;;;0.97;;
19257;SDS011;9763;48.780;9.212;2024-02-21T18:51:56;1.30;;;0.90;;
19257;SDS011;9763;48.780;9.212;2024-02-21T18:55:21;1.60;;;1.30;;
19257;SDS011;9763;48.780;9.212;2024-02-21T18:58:45;1.40;;;1.10;;
19257;SDS011;9763;48.780;9.212;2024-02-21T19:02:09;1.50;;;1.10;;
19257;SDS011;9763;48.780;9.212;2024-02-21T19:05:33;1.90;;;0.93;;
19257;SDS011;9763;48.780;9.212;2024-02-21T19:08:57;1.57;;;1.07;;
19257;SDS011;9763;48.780;9.212;2024-02-21T19:12:22;1.40;;;1.00;;
19257;SDS011;9763;48.780;9.212;2024-02-21T19:15:46;1.50;;;0.97;;
19257;SDS011;9763;48.780;9.212;2024-02-21T19:19:09;1.33;;;0.90;;
19257;SDS011;9763;48.780;9.212;2024-02-21T19:22:33;1.60;;;1.00;;
19257;SDS011;9763;48.780;9.212;2024-02-21T19:25:59;1.40;;;1.00;;
19257;SDS011;9763;48.780;9.212;2024-02-21T19:29:24;1.20;;;0.80;;
19257;SDS011;9763;48.780;9.212;2024-02-21T19:32:48;1.40;;;0.90;;
19257;SDS011;9763;48.780;9.212;2024-02-21T19:36:12;1.33;;;0.97;;
19257;SDS011;9763;48.780;9.212;2024-02-21T19:39:36;2.00;;;1.10;;
19257;SDS011;9763;48.780;9.212;2024-02-21T19:42:59;1.20;;;0.90;;
19257;SDS011;9763;48.780;9.212;2024-02-21T19:46:25;1.40;;;1.00;;
19257;SDS011;9763;48.780;9.212;2024-02-21T19:49:48;1.23;;;0.80;;
19257;SDS011;9763;48.780;9.212;2024-02-21T19:53:12;1.70;;;1.00;;
19257;SDS011;9763;48.780;9.212;2024-02-21T19:56:36;1.87;;;1.20;;
19257;SDS011;9763;48.780;9.212;2024-02-21T20:00:00;1.37;;;1.10;;
19257;SDS011;9763;48.780;9.212;2024-02-21T20:03:34;1.60;;;1.10;;
19257;SDS011;9763;48.780;9.212;2024-02-21T20:06:58;1.43;;;0.90;;
19257;SDS011;9763;48.780;9.212;2024-02-21T20:10:21;1.77;;;1.20;;
19257;SDS011;9763;48.780;9.212;2024-02-21T20:13:46;2.17;;;1.10;;
19257;SDS011;9763;48.780;9.212;2024-02-21T20:17:09;1.40;;;1.00;;
19257;SDS011;9763;48.780;9.212;2024-02-21T20:20:34;2.10;;;1.17;;
19257;SDS011;9763;48.780;9.212;2024-02-21T20:23:59;1.70;;;0.90;;
19257;SDS011;9763;48.780;9.212;2024-02-21T20:27:24;1.27;;;1.00;;
19257;SDS011;9763;48.780;9.212;2024-02-21T20:30:48;1.30;;;1.00;;
19257;SDS011;9763;48.780;9.212;2024-02-21T20:34:12;1.70;;;1.07;;
19257;SDS011;9763;48.780;9.212;2024-02-21T20:37:39;2.23;;;1.07;;
19257;SDS011;9763;48.780;9.212;2024-02-21T20:41:03;1.37;;;1.00;;
19257;SDS011;9763;48.780;9.212;2024-02-21T20:44:27;1.33;;;1.00;;
19257;SDS011;9763;48.780;9.212;2024-02-21T20:47:51;1.30;;;0.90;;
19257;SDS011;9763;48.780;9.212;2024-02-21T20:51:14;1.40;;;1.00;;